sensor_id;sensor_type;location;lat;lon;timestamp;P1;durP1;ratioP1;P2;durP2;ratioP2
18021;SDS011;9136;48.822;7.966;2023-07-02T00:00:22;18.00;;;17.10;;
18021;SDS011;9136;48.822;7.966;2023-07-02T00:03:11;17.87;;;17.07;;
18021;SDS011;9136;48.822;7.966;2023-07-02T00:05:59;18.87;;;18.07;;
18021;SDS011;9136;48.822;7.966;2023-07-02T00:08:47;19.43;;;17.23;;
18021;SDS011;9136;48.822;7.966;2023-07-02T00:11:35;17.50;;;16.70;;
18021;SDS011;9136;48.822;7.966;2023-07-02T00:14:22;17.77;;;16.97;;
18021;SDS011;9136;48.822;7.966;2023-07-02T00:17:10;17.60;;;16.80;;
18021;SDS011;9136;48.822;7.966;2023-07-02T00:20:00;19.17;;;18.27;;
18021;SDS011;9136;48.822;7.966;2023-07-02T00:22:54;19.30;;;18.40;;
18021;SDS011;9136;48.822;7.966;2023-07-02T00:25:42;17.90;;;17.10;;
18021;SDS011;9136;48.822;7.966;2023-07-02T00:28:30;18.37;;;17.57;;
18021;SDS011;9136;48.822;7.966;2023-07-02T00:31:18;19.13;;;18.20;;
18021;SDS011;9136;48.822;7.966;2023-07-02T00:34:06;19.13;;;18.27;;
18021;SDS011;9136;48.822;7.966;2023-07-02T00:36:55;17.57;;;16.77;;
18021;SDS011;9136;48.822;7.966;2023-07-02T00:39:43;18.20;;;17.40;;
18021;SDS011;9136;48.822;7.966;2023-07-02T00:42:31;18.53;;;17.73;;
18021;SDS011;9136;48.822;7.966;2023-07-02T00:45:18;18.50;;;17.70;;
18021;SDS011;9136;48.822;7.966;2023-07-02T00:48:06;18.40;;;17.50;;
18021;SDS011;9136;48.822;7.966;2023-07-02T00:50:54;18.00;;;17.10;;
18021;SDS011;9136;48.822;7.966;2023-07-02T00:53:45;17.48;;;16.67;;
18021;SDS011;9136;48.822;7.966;2023-07-02T00:56:34;16.90;;;16.20;;
18021;SDS011;9136;48.822;7.966;2023-07-02T00:59:22;17.80;;;17.00;;
18021;SDS011;9136;48.822;7.966;2023-07-02T01:02:10;18.43;;;17.60;;
18021;SDS011;9136;48.822;7.966;2023-07-02T01:04:59;18.87;;;18.07;;
18021;SDS011;9136;48.822;7.966;2023-07-02T01:07:47;18.00;;;17.20;;
18021;SDS011;9136;48.822;7.966;2023-07-02T01:10:36;17.73;;;16.93;;
18021;SDS011;9136;48.822;7.966;2023-07-02T01:13:24;18.50;;;17.70;;
18021;SDS011;9136;48.822;7.966;2023-07-02T01:16:13;17.60;;;16.70;;
18021;SDS011;9136;48.822;7.966;2023-07-02T01:19:01;18.00;;;17.20;;
18021;SDS011;9136;48.822;7.966;2023-07-02T01:21:53;18.23;;;17.43;;
18021;SDS011;9136;48.822;7.966;2023-07-02T01:24:41;16.47;;;15.67;;
18021;SDS011;9136;48.822;7.966;2023-07-02T01:27:29;17.60;;;16.80;;
18021;SDS011;9136;48.822;7.966;2023-07-02T01:30:17;17.73;;;16.87;;
18021;SDS011;9136;48.822;7.966;2023-07-02T01:33:05;18.83;;;17.63;;
18021;SDS011;9136;48.822;7.966;2023-07-02T01:35:53;18.63;;;17.83;;
18021;SDS011;9136;48.822;7.966;2023-07-02T01:38:42;18.50;;;17.70;;
18021;SDS011;9136;48.822;7.966;2023-07-02T01:41:31;18.73;;;17.77;;
18021;SDS011;9136;48.822;7.966;2023-07-02T01:44:24;18.73;;;17.93;;
18021;SDS011;9136;48.822;7.966;2023-07-02T01:47:12;17.73;;;16.93;;
18021;SDS011;9136;48.822;7.966;2023-07-02T01:50:03;18.07;;;17.27;;
18021;SDS011;9136;48.822;7.966;2023-07-02T01:52:52;17.97;;;17.07;;
18021;SDS011;9136;48.822;7.966;2023-07-02T01:55:41;17.57;;;16.77;;
18021;SDS011;9136;48.822;7.966;2023-07-02T01:58:29;16.60;;;15.87;;
18021;SDS011;9136;48.822;7.966;2023-07-02T02:01:17;17.53;;;16.73;;
18021;SDS011;9136;48.822;7.966;2023-07-02T02:04:05;15.47;;;14.77;;
18021;SDS011;9136;48.822;7.966;2023-07-02T02:06:53;17.80;;;17.00;;
18021;SDS011;9136;48.822;7.966;2023-07-02T02:09:41;17.77;;;16.87;;
18021;SDS011;9136;48.822;7.966;2023-07-02T02:12:31;19.00;;;18.00;;
18021;SDS011;9136;48.822;7.966;2023-07-02T02:15:18;16.80;;;16.00;;
18021;SDS011;9136;48.822;7.966;2023-07-02T02:18:06;16.77;;;15.97;;
18021;SDS011;9136;48.822;7.966;2023-07-02T02:20:54;17.00;;;16.20;;
18021;SDS011;9136;48.822;7.966;2023-07-02T02:23:42;16.77;;;16.07;;
18021;SDS011;9136;48.822;7.966;2023-07-02T02:26:30;17.40;;;16.60;;
18021;SDS011;9136;48.822;7.966;2023-07-02T02:29:20;19.53;;;17.73;;
18021;SDS011;9136;48.822;7.966;2023-07-02T02:32:08;19.10;;;17.67;;
18021;SDS011;9136;48.822;7.966;2023-07-02T02:34:56;18.40;;;17.60;;
18021;SDS011;9136;48.822;7.966;2023-07-02T02:37:44;17.07;;;16.27;;
18021;SDS011;9136;48.822;7.966;2023-07-02T02:40:32;19.83;;;18.63;;
18021;SDS011;9136;48.822;7.966;2023-07-02T02:43:21;18.13;;;17.23;;
18021;SDS011;9136;48.822;7.966;2023-07-02T02:46:11;17.37;;;16.43;;
18021;SDS011;9136;48.822;7.966;2023-07-02T02:49:00;17.80;;;17.00;;
18021;SDS011;9136;48.822;7.966;2023-07-02T02:51:47;17.70;;;16.80;;
18021;SDS011;9136;48.822;7.966;2023-07-02T02:54:35;18.07;;;17.27;;
18021;SDS011;9136;48.822;7.966;2023-07-02T02:57:23;17.77;;;16.97;;
18021;SDS011;9136;48.822;7.966;2023-07-02T03:00:11;17.03;;;16.23;;
18021;SDS011;9136;48.822;7.966;2023-07-02T03:03:01;16.80;;;16.00;;
18021;SDS011;9136;48.822;7.966;2023-07-02T03:05:48;16.30;;;15.50;;
18021;SDS011;9136;48.822;7.966;2023-07-02T03:08:36;17.73;;;16.83;;
18021;SDS011;9136;48.822;7.966;2023-07-02T03:11:24;19.00;;;18.00;;
18021;SDS011;9136;48.822;7.966;2023-07-02T03:14:11;17.63;;;16.83;;
18021;SDS011;9136;48.822;7.966;2023-07-02T03:16:59;17.80;;;16.90;;
18021;SDS011;9136;48.822;7.966;2023-07-02T03:19:49;19.20;;;18.30;;
18021;SDS011;9136;48.822;7.966;2023-07-02T03:22:37;16.67;;;15.97;;
18021;SDS011;9136;48.822;7.966;2023-07-02T03:25:25;18.57;;;17.67;;
18021;SDS011;9136;48.822;7.966;2023-07-02T03:28:12;18.73;;;17.93;;
18021;SDS011;9136;48.822;7.966;2023-07-02T03:31:00;18.60;;;17.70;;
18021;SDS011;9136;48.822;7.966;2023-07-02T03:33:48;19.23;;;18.03;;
18021;SDS011;9136;48.822;7.966;2023-07-02T03:36:37;18.73;;;17.73;;
18021;SDS011;9136;48.822;7.966;2023-07-02T03:39:25;18.30;;;17.40;;
18021;SDS011;9136;48.822;7.966;2023-07-02T03:42:14;18.57;;;17.77;;
18021;SDS011;9136;48.822;7.966;2023-07-02T03:45:01;20.27;;;19.37;;
18021;SDS011;9136;48.822;7.966;2023-07-02T03:47:50;17.40;;;16.60;;
18021;SDS011;9136;48.822;7.966;2023-07-02T03:50:38;17.23;;;16.33;;
18021;SDS011;9136;48.822;7.966;2023-07-02T03:53:27;20.10;;;19.20;;
18021;SDS011;9136;48.822;7.966;2023-07-02T03:56:15;18.50;;;17.70;;
18021;SDS011;9136;48.822;7.966;2023-07-02T03:59:03;19.23;;;18.33;;
18021;SDS011;9136;48.822;7.966;2023-07-02T04:01:52;19.10;;;16.93;;
18021;SDS011;9136;48.822;7.966;2023-07-02T04:04:41;18.30;;;17.50;;
18021;SDS011;9136;48.822;7.966;2023-07-02T04:07:29;18.90;;;18.00;;
18021;SDS011;9136;48.822;7.966;2023-07-02T04:10:19;20.77;;;19.77;;
18021;SDS011;9136;48.822;7.966;2023-07-02T04:13:07;18.90;;;17.90;;
18021;SDS011;9136;48.822;7.966;2023-07-02T04:15:54;18.00;;;17.20;;
18021;SDS011;9136;48.822;7.966;2023-07-02T04:18:43;18.10;;;17.30;;
18021;SDS011;9136;48.822;7.966;2023-07-02T04:21:30;18.57;;;17.67;;
18021;SDS011;9136;48.822;7.966;2023-07-02T04:24:18;17.80;;;16.97;;
18021;SDS011;9136;48.822;7.966;2023-07-02T04:27:07;16.30;;;15.60;;
18021;SDS011;9136;48.822;7.966;2023-07-02T04:29:55;18.03;;;16.70;;
18021;SDS011;9136;48.822;7.966;2023-07-02T04:32:43;18.00;;;17.17;;
18021;SDS011;9136;48.822;7.966;2023-07-02T04:35:31;18.57;;;17.67;;
18021;SDS011;9136;48.822;7.966;2023-07-02T04:38:20;18.73;;;17.63;;
18021;SDS011;9136;48.822;7.966;2023-07-02T04:41:08;17.47;;;16.67;;
18021;SDS011;9136;48.822;7.966;2023-07-02T04:43:58;18.40;;;17.60;;
18021;SDS011;9136;48.822;7.966;2023-07-02T04:46:46;16.80;;;15.90;;
18021;SDS011;9136;48.822;7.966;2023-07-02T04:49:33;15.67;;;14.97;;
18021;SDS011;9136;48.822;7.966;2023-07-02T04:52:22;15.10;;;14.40;;
18021;SDS011;9136;48.822;7.966;2023-07-02T04:55:09;16.93;;;16.10;;
18021;SDS011;9136;48.822;7.966;2023-07-02T04:57:57;17.47;;;16.67;;
18021;SDS011;9136;48.822;7.966;2023-07-02T05:00:46;18.77;;;17.87;;
18021;SDS011;9136;48.822;7.966;2023-07-02T05:03:36;15.50;;;14.80;;
18021;SDS011;9136;48.822;7.966;2023-07-02T05:06:25;17.07;;;16.07;;
18021;SDS011;9136;48.822;7.966;2023-07-02T05:09:12;18.57;;;17.07;;
18021;SDS011;9136;48.822;7.966;2023-07-02T05:12:00;17.53;;;16.73;;
18021;SDS011;9136;48.822;7.966;2023-07-02T05:14:48;16.67;;;15.87;;
18021;SDS011;9136;48.822;7.966;2023-07-02T05:17:38;15.77;;;15.07;;
18021;SDS011;9136;48.822;7.966;2023-07-02T05:20:26;16.40;;;15.70;;
18021;SDS011;9136;48.822;7.966;2023-07-02T05:23:14;17.20;;;16.30;;
18021;SDS011;9136;48.822;7.966;2023-07-02T05:26:02;16.13;;;15.43;;
18021;SDS011;9136;48.822;7.966;2023-07-02T05:28:50;15.60;;;14.90;;
18021;SDS011;9136;48.822;7.966;2023-07-02T05:31:37;17.03;;;16.07;;
18021;SDS011;9136;48.822;7.966;2023-07-02T05:34:27;17.97;;;17.07;;
18021;SDS011;9136;48.822;7.966;2023-07-02T05:37:15;16.93;;;16.03;;
18021;SDS011;9136;48.822;7.966;2023-07-02T05:40:03;15.57;;;14.87;;
18021;SDS011;9136;48.822;7.966;2023-07-02T05:42:51;16.20;;;15.40;;
18021;SDS011;9136;48.822;7.966;2023-07-02T05:45:39;16.80;;;16.03;;
18021;SDS011;9136;48.822;7.966;2023-07-02T05:48:28;16.43;;;15.53;;
18021;SDS011;9136;48.822;7.966;2023-07-02T05:51:21;16.53;;;15.70;;
18021;SDS011;9136;48.822;7.966;2023-07-02T05:54:09;16.37;;;15.57;;
18021;SDS011;9136;48.822;7.966;2023-07-02T05:56:57;17.53;;;16.63;;
18021;SDS011;9136;48.822;7.966;2023-07-02T05:59:45;18.87;;;17.97;;
18021;SDS011;9136;48.822;7.966;2023-07-02T06:02:32;17.17;;;16.33;;
18021;SDS011;9136;48.822;7.966;2023-07-02T06:05:20;18.03;;;17.10;;
18021;SDS011;9136;48.822;7.966;2023-07-02T06:08:10;17.27;;;16.27;;
18021;SDS011;9136;48.822;7.966;2023-07-02T06:10:58;18.20;;;17.23;;
18021;SDS011;9136;48.822;7.966;2023-07-02T06:13:45;18.13;;;17.03;;
18021;SDS011;9136;48.822;7.966;2023-07-02T06:16:33;18.70;;;17.13;;
18021;SDS011;9136;48.822;7.966;2023-07-02T06:19:21;16.63;;;15.73;;
18021;SDS011;9136;48.822;7.966;2023-07-02T06:22:09;20.03;;;18.83;;
18021;SDS011;9136;48.822;7.966;2023-07-02T06:24:58;17.83;;;17.02;;
18021;SDS011;9136;48.822;7.966;2023-07-02T06:27:46;18.70;;;17.70;;
18021;SDS011;9136;48.822;7.966;2023-07-02T06:30:34;17.30;;;16.40;;
18021;SDS011;9136;48.822;7.966;2023-07-02T06:33:22;16.30;;;15.50;;
18021;SDS011;9136;48.822;7.966;2023-07-02T06:36:10;19.65;;;18.42;;
18021;SDS011;9136;48.822;7.966;2023-07-02T06:38:59;17.55;;;16.58;;
18021;SDS011;9136;48.822;7.966;2023-07-02T06:41:48;16.42;;;15.55;;
18021;SDS011;9136;48.822;7.966;2023-07-02T06:44:36;15.73;;;15.03;;
18021;SDS011;9136;48.822;7.966;2023-07-02T06:47:24;16.77;;;15.93;;
18021;SDS011;9136;48.822;7.966;2023-07-02T06:50:12;17.05;;;16.05;;
18021;SDS011;9136;48.822;7.966;2023-07-02T06:53:01;18.02;;;17.02;;
18021;SDS011;9136;48.822;7.966;2023-07-02T06:55:49;18.98;;;17.73;;
18021;SDS011;9136;48.822;7.966;2023-07-02T06:58:38;17.27;;;16.38;;
18021;SDS011;9136;48.822;7.966;2023-07-02T07:01:26;18.00;;;16.90;;
18021;SDS011;9136;48.822;7.966;2023-07-02T07:04:14;18.52;;;17.52;;
18021;SDS011;9136;48.822;7.966;2023-07-02T07:07:03;17.95;;;16.88;;
18021;SDS011;9136;48.822;7.966;2023-07-02T07:09:51;18.33;;;17.25;;
18021;SDS011;9136;48.822;7.966;2023-07-02T07:12:39;17.38;;;16.30;;
18021;SDS011;9136;48.822;7.966;2023-07-02T07:15:29;19.42;;;18.42;;
18021;SDS011;9136;48.822;7.966;2023-07-02T07:18:19;18.23;;;17.33;;
18021;SDS011;9136;48.822;7.966;2023-07-02T07:21:07;18.13;;;17.23;;
18021;SDS011;9136;48.822;7.966;2023-07-02T07:23:56;19.73;;;18.23;;
18021;SDS011;9136;48.822;7.966;2023-07-02T07:26:44;19.23;;;18.08;;
18021;SDS011;9136;48.822;7.966;2023-07-02T07:29:32;20.52;;;18.55;;
18021;SDS011;9136;48.822;7.966;2023-07-02T07:32:22;18.85;;;17.70;;
18021;SDS011;9136;48.822;7.966;2023-07-02T07:35:10;18.48;;;17.23;;
18021;SDS011;9136;48.822;7.966;2023-07-02T07:37:58;17.55;;;16.65;;
18021;SDS011;9136;48.822;7.966;2023-07-02T07:40:46;17.10;;;16.10;;
18021;SDS011;9136;48.822;7.966;2023-07-02T07:43:33;18.90;;;17.60;;
18021;SDS011;9136;48.822;7.966;2023-07-02T07:46:21;17.38;;;16.42;;
18021;SDS011;9136;48.822;7.966;2023-07-02T07:49:11;18.00;;;17.00;;
18021;SDS011;9136;48.822;7.966;2023-07-02T07:52:01;16.83;;;15.68;;
18021;SDS011;9136;48.822;7.966;2023-07-02T07:54:49;16.42;;;15.63;;
18021;SDS011;9136;48.822;7.966;2023-07-02T07:57:37;18.20;;;17.10;;
18021;SDS011;9136;48.822;7.966;2023-07-02T08:00:25;21.60;;;18.52;;
18021;SDS011;9136;48.822;7.966;2023-07-02T08:03:13;18.10;;;17.02;;
18021;SDS011;9136;48.822;7.966;2023-07-02T08:06:02;17.73;;;16.77;;
18021;SDS011;9136;48.822;7.966;2023-07-02T08:08:50;20.30;;;18.92;;
18021;SDS011;9136;48.822;7.966;2023-07-02T08:11:38;18.55;;;17.55;;
18021;SDS011;9136;48.822;7.966;2023-07-02T08:14:25;22.80;;;18.92;;
18021;SDS011;9136;48.822;7.966;2023-07-02T08:17:15;18.15;;;17.15;;
18021;SDS011;9136;48.822;7.966;2023-07-02T08:20:03;19.33;;;18.17;;
18021;SDS011;9136;48.822;7.966;2023-07-02T08:22:56;19.25;;;18.15;;
18021;SDS011;9136;48.822;7.966;2023-07-02T08:25:44;19.92;;;18.52;;
18021;SDS011;9136;48.822;7.966;2023-07-02T08:28:32;18.15;;;17.05;;
18021;SDS011;9136;48.822;7.966;2023-07-02T08:31:20;18.38;;;17.25;;
18021;SDS011;9136;48.822;7.966;2023-07-02T08:34:08;17.60;;;16.60;;
18021;SDS011;9136;48.822;7.966;2023-07-02T08:36:55;19.70;;;17.98;;
18021;SDS011;9136;48.822;7.966;2023-07-02T08:39:45;18.70;;;17.60;;
18021;SDS011;9136;48.822;7.966;2023-07-02T08:42:32;17.23;;;16.33;;
18021;SDS011;9136;48.822;7.966;2023-07-02T08:45:23;17.98;;;16.80;;
18021;SDS011;9136;48.822;7.966;2023-07-02T08:48:12;18.70;;;17.75;;
18021;SDS011;9136;48.822;7.966;2023-07-02T08:51:00;21.17;;;19.83;;
18021;SDS011;9136;48.822;7.966;2023-07-02T08:53:49;18.25;;;16.48;;
18021;SDS011;9136;48.822;7.966;2023-07-02T08:56:39;17.83;;;16.75;;
18021;SDS011;9136;48.822;7.966;2023-07-02T08:59:27;17.30;;;16.38;;
18021;SDS011;9136;48.822;7.966;2023-07-02T09:02:15;20.92;;;19.52;;
18021;SDS011;9136;48.822;7.966;2023-07-02T09:05:03;19.15;;;17.95;;
18021;SDS011;9136;48.822;7.966;2023-07-02T09:07:52;19.13;;;17.73;;
18021;SDS011;9136;48.822;7.966;2023-07-02T09:10:40;21.13;;;19.33;;
18021;SDS011;9136;48.822;7.966;2023-07-02T09:13:30;19.42;;;18.38;;
18021;SDS011;9136;48.822;7.966;2023-07-02T09:16:25;18.92;;;17.15;;
18021;SDS011;9136;48.822;7.966;2023-07-02T09:19:14;20.10;;;18.42;;
18021;SDS011;9136;48.822;7.966;2023-07-02T09:22:04;17.90;;;16.70;;
18021;SDS011;9136;48.822;7.966;2023-07-02T09:24:52;18.48;;;17.27;;
18021;SDS011;9136;48.822;7.966;2023-07-02T09:27:41;20.20;;;19.05;;
18021;SDS011;9136;48.822;7.966;2023-07-02T09:30:32;17.42;;;16.42;;
18021;SDS011;9136;48.822;7.966;2023-07-02T09:33:20;20.85;;;19.20;;
18021;SDS011;9136;48.822;7.966;2023-07-02T09:36:08;20.33;;;18.75;;
18021;SDS011;9136;48.822;7.966;2023-07-02T09:38:56;20.05;;;18.85;;
18021;SDS011;9136;48.822;7.966;2023-07-02T09:41:45;19.30;;;17.58;;
18021;SDS011;9136;48.822;7.966;2023-07-02T09:44:36;19.65;;;18.40;;
18021;SDS011;9136;48.822;7.966;2023-07-02T09:47:28;19.23;;;17.85;;
18021;SDS011;9136;48.822;7.966;2023-07-02T09:50:19;18.58;;;17.38;;
18021;SDS011;9136;48.822;7.966;2023-07-02T09:53:08;18.17;;;17.20;;
18021;SDS011;9136;48.822;7.966;2023-07-02T09:55:56;20.08;;;18.98;;
18021;SDS011;9136;48.822;7.966;2023-07-02T09:58:44;19.52;;;18.25;;
18021;SDS011;9136;48.822;7.966;2023-07-02T10:01:32;19.08;;;18.08;;
18021;SDS011;9136;48.822;7.966;2023-07-02T10:04:22;18.20;;;17.10;;
18021;SDS011;9136;48.822;7.966;2023-07-02T10:07:11;16.88;;;16.02;;
18021;SDS011;9136;48.822;7.966;2023-07-02T10:10:00;17.17;;;16.15;;
18021;SDS011;9136;48.822;7.966;2023-07-02T10:12:49;16.77;;;15.65;;
18021;SDS011;9136;48.822;7.966;2023-07-02T10:15:38;15.68;;;14.77;;
18021;SDS011;9136;48.822;7.966;2023-07-02T10:18:26;16.48;;;15.55;;
18021;SDS011;9136;48.822;7.966;2023-07-02T10:21:16;16.48;;;15.20;;
18021;SDS011;9136;48.822;7.966;2023-07-02T10:24:11;16.83;;;15.55;;
18021;SDS011;9136;48.822;7.966;2023-07-02T10:27:00;16.60;;;15.60;;
18021;SDS011;9136;48.822;7.966;2023-07-02T10:29:50;15.25;;;14.35;;
18021;SDS011;9136;48.822;7.966;2023-07-02T10:32:38;15.30;;;14.30;;
18021;SDS011;9136;48.822;7.966;2023-07-02T10:35:27;14.60;;;13.57;;
18021;SDS011;9136;48.822;7.966;2023-07-02T10:38:23;16.63;;;15.40;;
18021;SDS011;9136;48.822;7.966;2023-07-02T10:41:22;15.63;;;14.73;;
18021;SDS011;9136;48.822;7.966;2023-07-02T10:44:10;13.95;;;13.25;;
18021;SDS011;9136;48.822;7.966;2023-07-02T10:46:58;14.68;;;13.55;;
18021;SDS011;9136;48.822;7.966;2023-07-02T10:49:46;16.83;;;15.23;;
18021;SDS011;9136;48.822;7.966;2023-07-02T10:52:36;14.63;;;13.93;;
18021;SDS011;9136;48.822;7.966;2023-07-02T10:55:27;15.35;;;14.45;;
18021;SDS011;9136;48.822;7.966;2023-07-02T10:58:15;15.70;;;14.80;;
18021;SDS011;9136;48.822;7.966;2023-07-02T11:01:03;16.92;;;15.20;;
18021;SDS011;9136;48.822;7.966;2023-07-02T11:03:58;14.27;;;13.48;;
18021;SDS011;9136;48.822;7.966;2023-07-02T11:06:47;14.40;;;13.50;;
18021;SDS011;9136;48.822;7.966;2023-07-02T11:09:35;14.90;;;13.93;;
18021;SDS011;9136;48.822;7.966;2023-07-02T11:12:28;14.35;;;13.55;;
18021;SDS011;9136;48.822;7.966;2023-07-02T11:15:17;15.18;;;14.32;;
18021;SDS011;9136;48.822;7.966;2023-07-02T11:18:08;13.55;;;12.68;;
18021;SDS011;9136;48.822;7.966;2023-07-02T11:20:56;13.32;;;12.68;;
18021;SDS011;9136;48.822;7.966;2023-07-02T11:23:44;13.43;;;12.65;;
18021;SDS011;9136;48.822;7.966;2023-07-02T11:26:36;13.68;;;12.80;;
18021;SDS011;9136;48.822;7.966;2023-07-02T11:29:25;14.10;;;13.27;;
18021;SDS011;9136;48.822;7.966;2023-07-02T11:32:13;13.15;;;12.45;;
18021;SDS011;9136;48.822;7.966;2023-07-02T11:35:01;12.32;;;11.60;;
18021;SDS011;9136;48.822;7.966;2023-07-02T11:37:49;13.40;;;12.55;;
18021;SDS011;9136;48.822;7.966;2023-07-02T11:40:36;13.05;;;12.32;;
18021;SDS011;9136;48.822;7.966;2023-07-02T11:43:25;12.52;;;11.82;;
18021;SDS011;9136;48.822;7.966;2023-07-02T11:46:15;14.40;;;13.40;;
18021;SDS011;9136;48.822;7.966;2023-07-02T11:49:03;14.25;;;13.13;;
18021;SDS011;9136;48.822;7.966;2023-07-02T11:51:54;13.35;;;12.50;;
18021;SDS011;9136;48.822;7.966;2023-07-02T11:54:42;12.75;;;11.88;;
18021;SDS011;9136;48.822;7.966;2023-07-02T11:57:30;12.77;;;12.07;;
18021;SDS011;9136;48.822;7.966;2023-07-02T12:00:18;12.13;;;11.43;;
18021;SDS011;9136;48.822;7.966;2023-07-02T12:03:08;11.55;;;10.95;;
18021;SDS011;9136;48.822;7.966;2023-07-02T12:05:56;13.02;;;12.18;;
18021;SDS011;9136;48.822;7.966;2023-07-02T12:08:44;13.23;;;12.43;;
18021;SDS011;9136;48.822;7.966;2023-07-02T12:11:32;12.75;;;11.82;;
18021;SDS011;9136;48.822;7.966;2023-07-02T12:14:19;14.23;;;13.02;;
18021;SDS011;9136;48.822;7.966;2023-07-02T12:17:07;13.75;;;11.48;;
18021;SDS011;9136;48.822;7.966;2023-07-02T12:20:00;13.15;;;12.07;;
18021;SDS011;9136;48.822;7.966;2023-07-02T12:22:47;12.70;;;11.90;;
18021;SDS011;9136;48.822;7.966;2023-07-02T12:25:35;12.70;;;11.75;;
18021;SDS011;9136;48.822;7.966;2023-07-02T12:28:23;12.73;;;11.85;;
18021;SDS011;9136;48.822;7.966;2023-07-02T12:31:11;13.82;;;12.75;;
18021;SDS011;9136;48.822;7.966;2023-07-02T12:33:59;12.75;;;12.05;;
18021;SDS011;9136;48.822;7.966;2023-07-02T12:36:48;12.57;;;11.77;;
18021;SDS011;9136;48.822;7.966;2023-07-02T12:39:36;12.38;;;11.48;;
18021;SDS011;9136;48.822;7.966;2023-07-02T12:42:24;13.25;;;12.32;;
18021;SDS011;9136;48.822;7.966;2023-07-02T12:45:12;13.57;;;12.77;;
18021;SDS011;9136;48.822;7.966;2023-07-02T12:48:01;11.60;;;10.98;;
18021;SDS011;9136;48.822;7.966;2023-07-02T12:50:55;12.85;;;11.85;;
18021;SDS011;9136;48.822;7.966;2023-07-02T12:53:45;12.20;;;11.10;;
18021;SDS011;9136;48.822;7.966;2023-07-02T12:56:33;12.45;;;11.75;;
18021;SDS011;9136;48.822;7.966;2023-07-02T12:59:20;12.75;;;11.13;;
18021;SDS011;9136;48.822;7.966;2023-07-02T13:02:09;12.32;;;11.60;;
18021;SDS011;9136;48.822;7.966;2023-07-02T13:04:57;12.55;;;11.85;;
18021;SDS011;9136;48.822;7.966;2023-07-02T13:07:44;13.65;;;12.70;;
18021;SDS011;9136;48.822;7.966;2023-07-02T13:10:34;13.18;;;12.30;;
18021;SDS011;9136;48.822;7.966;2023-07-02T13:13:22;11.95;;;11.25;;
18021;SDS011;9136;48.822;7.966;2023-07-02T13:16:10;11.88;;;11.18;;
18021;SDS011;9136;48.822;7.966;2023-07-02T13:18:58;11.68;;;10.98;;
18021;SDS011;9136;48.822;7.966;2023-07-02T13:21:47;13.35;;;12.02;;
18021;SDS011;9136;48.822;7.966;2023-07-02T13:24:35;12.10;;;11.40;;
18021;SDS011;9136;48.822;7.966;2023-07-02T13:27:28;13.13;;;12.43;;
18021;SDS011;9136;48.822;7.966;2023-07-02T13:30:16;12.32;;;11.43;;
18021;SDS011;9136;48.822;7.966;2023-07-02T13:33:04;12.88;;;11.95;;
18021;SDS011;9136;48.822;7.966;2023-07-02T13:35:52;12.48;;;11.43;;
18021;SDS011;9136;48.822;7.966;2023-07-02T13:38:40;10.82;;;10.10;;
18021;SDS011;9136;48.822;7.966;2023-07-02T13:41:28;12.93;;;11.85;;
18021;SDS011;9136;48.822;7.966;2023-07-02T13:44:17;12.57;;;11.70;;
18021;SDS011;9136;48.822;7.966;2023-07-02T13:47:05;11.55;;;10.93;;
18021;SDS011;9136;48.822;7.966;2023-07-02T13:49:53;13.35;;;12.13;;
18021;SDS011;9136;48.822;7.966;2023-07-02T13:52:41;12.48;;;11.77;;
18021;SDS011;9136;48.822;7.966;2023-07-02T13:55:30;12.30;;;11.60;;
18021;SDS011;9136;48.822;7.966;2023-07-02T13:58:18;12.60;;;11.45;;
18021;SDS011;9136;48.822;7.966;2023-07-02T14:01:07;12.23;;;11.40;;
18021;SDS011;9136;48.822;7.966;2023-07-02T14:03:55;11.77;;;11.07;;
18021;SDS011;9136;48.822;7.966;2023-07-02T14:06:43;12.13;;;11.45;;
18021;SDS011;9136;48.822;7.966;2023-07-02T14:09:31;10.82;;;10.23;;
18021;SDS011;9136;48.822;7.966;2023-07-02T14:12:19;12.82;;;11.68;;
18021;SDS011;9136;48.822;7.966;2023-07-02T14:15:07;12.88;;;11.60;;
18021;SDS011;9136;48.822;7.966;2023-07-02T14:17:58;12.63;;;11.57;;
18021;SDS011;9136;48.822;7.966;2023-07-02T14:20:46;13.50;;;12.20;;
18021;SDS011;9136;48.822;7.966;2023-07-02T14:23:34;12.25;;;11.38;;
18021;SDS011;9136;48.822;7.966;2023-07-02T14:26:22;21.30;;;12.25;;
18021;SDS011;9136;48.822;7.966;2023-07-02T14:29:09;12.52;;;11.73;;
18021;SDS011;9136;48.822;7.966;2023-07-02T14:31:58;11.88;;;11.13;;
18021;SDS011;9136;48.822;7.966;2023-07-02T14:34:47;12.02;;;11.23;;
18021;SDS011;9136;48.822;7.966;2023-07-02T14:37:35;12.38;;;11.52;;
18021;SDS011;9136;48.822;7.966;2023-07-02T14:40:23;14.07;;;12.63;;
18021;SDS011;9136;48.822;7.966;2023-07-02T14:43:11;12.90;;;11.88;;
18021;SDS011;9136;48.822;7.966;2023-07-02T14:46:01;13.15;;;11.95;;
18021;SDS011;9136;48.822;7.966;2023-07-02T14:48:49;12.43;;;11.48;;
18021;SDS011;9136;48.822;7.966;2023-07-02T14:51:39;17.17;;;11.73;;
18021;SDS011;9136;48.822;7.966;2023-07-02T14:54:27;13.18;;;12.27;;
18021;SDS011;9136;48.822;7.966;2023-07-02T14:57:15;13.52;;;12.70;;
18021;SDS011;9136;48.822;7.966;2023-07-02T15:00:03;10.80;;;10.23;;
18021;SDS011;9136;48.822;7.966;2023-07-02T15:02:52;11.85;;;10.82;;
18021;SDS011;9136;48.822;7.966;2023-07-02T15:05:40;12.55;;;11.68;;
18021;SDS011;9136;48.822;7.966;2023-07-02T15:08:30;11.60;;;10.80;;
18021;SDS011;9136;48.822;7.966;2023-07-02T15:11:19;16.67;;;12.30;;
18021;SDS011;9136;48.822;7.966;2023-07-02T15:14:07;13.07;;;12.23;;
18021;SDS011;9136;48.822;7.966;2023-07-02T15:16:55;12.35;;;11.35;;
18021;SDS011;9136;48.822;7.966;2023-07-02T15:19:43;12.02;;;11.23;;
18021;SDS011;9136;48.822;7.966;2023-07-02T15:22:30;11.35;;;10.40;;
18021;SDS011;9136;48.822;7.966;2023-07-02T15:25:20;12.38;;;11.68;;
18021;SDS011;9136;48.822;7.966;2023-07-02T15:28:07;13.80;;;12.38;;
18021;SDS011;9136;48.822;7.966;2023-07-02T15:30:57;11.60;;;10.85;;
18021;SDS011;9136;48.822;7.966;2023-07-02T15:33:46;11.75;;;11.13;;
18021;SDS011;9136;48.822;7.966;2023-07-02T15:36:34;12.57;;;11.77;;
18021;SDS011;9136;48.822;7.966;2023-07-02T15:39:23;13.55;;;12.52;;
18021;SDS011;9136;48.822;7.966;2023-07-02T15:42:19;13.65;;;12.65;;
18021;SDS011;9136;48.822;7.966;2023-07-02T15:45:07;13.80;;;12.32;;
18021;SDS011;9136;48.822;7.966;2023-07-02T15:47:55;12.77;;;11.80;;
18021;SDS011;9136;48.822;7.966;2023-07-02T15:50:43;12.25;;;11.45;;
18021;SDS011;9136;48.822;7.966;2023-07-02T15:53:31;12.50;;;11.70;;
18021;SDS011;9136;48.822;7.966;2023-07-02T15:56:20;12.10;;;11.30;;
18021;SDS011;9136;48.822;7.966;2023-07-02T15:59:09;13.63;;;12.57;;
18021;SDS011;9136;48.822;7.966;2023-07-02T16:01:57;14.20;;;13.00;;
18021;SDS011;9136;48.822;7.966;2023-07-02T16:04:45;12.20;;;11.40;;
18021;SDS011;9136;48.822;7.966;2023-07-02T16:07:33;13.20;;;12.38;;
18021;SDS011;9136;48.822;7.966;2023-07-02T16:10:21;12.88;;;12.02;;
18021;SDS011;9136;48.822;7.966;2023-07-02T16:13:09;14.20;;;12.90;;
18021;SDS011;9136;48.822;7.966;2023-07-02T16:15:58;11.55;;;10.90;;
18021;SDS011;9136;48.822;7.966;2023-07-02T16:18:48;12.32;;;11.60;;
18021;SDS011;9136;48.822;7.966;2023-07-02T16:21:36;12.07;;;11.20;;
18021;SDS011;9136;48.822;7.966;2023-07-02T16:24:26;13.93;;;12.95;;
18021;SDS011;9136;48.822;7.966;2023-07-02T16:27:18;11.18;;;10.52;;
18021;SDS011;9136;48.822;7.966;2023-07-02T16:30:07;12.57;;;11.73;;
18021;SDS011;9136;48.822;7.966;2023-07-02T16:32:57;12.68;;;11.77;;
18021;SDS011;9136;48.822;7.966;2023-07-02T16:35:47;12.93;;;11.77;;
18021;SDS011;9136;48.822;7.966;2023-07-02T16:38:35;10.98;;;10.45;;